createdAt,value
2018-05-27T00:01:36.266Z,14.40
2018-05-27T00:04:04.315Z,14.30
2018-05-27T00:06:34.283Z,14.30
2018-05-27T00:09:11.614Z,14.10
2018-05-27T00:11:41.582Z,14.20
2018-05-27T00:14:14.475Z,14.10
2018-05-27T00:17:03.167Z,14.10
2018-05-27T00:19:35.123Z,14.10
2018-05-27T00:22:05.091Z,14.10
2018-05-27T00:24:34.079Z,14.00
2018-05-27T00:27:03.159Z,14.00
2018-05-27T00:29:33.138Z,13.90
2018-05-27T00:32:01.215Z,13.90
2018-05-27T00:34:29.264Z,13.90
2018-05-27T00:36:57.291Z,13.80
2018-05-27T00:39:28.884Z,13.80
2018-05-27T00:42:04.185Z,13.80
2018-05-27T00:44:42.102Z,13.80
2018-05-27T00:47:14.183Z,13.80
2018-05-27T00:49:43.187Z,13.80
2018-05-27T00:52:11.468Z,13.80
2018-05-27T00:54:42.778Z,13.70
2018-05-27T00:57:11.833Z,13.60
2018-05-27T00:59:39.864Z,13.60
2018-05-27T01:02:07.902Z,13.50
2018-05-27T01:04:35.966Z,13.40
2018-05-27T01:07:04.894Z,13.30
2018-05-27T01:09:39.398Z,13.30
2018-05-27T01:12:08.194Z,13.30
2018-05-27T01:14:38.031Z,13.30
2018-05-27T01:17:15.674Z,13.30
2018-05-27T01:19:43.718Z,13.40
2018-05-27T01:22:17.378Z,13.30
2018-05-27T01:24:51.014Z,13.40
2018-05-27T01:27:22.694Z,13.40
2018-05-27T01:29:53.482Z,13.40
2018-05-27T01:32:22.486Z,13.40
2018-05-27T01:34:52.498Z,13.40
2018-05-27T01:37:20.530Z,13.40
2018-05-27T01:40:01.310Z,13.40
2018-05-27T01:42:30.122Z,13.30
2018-05-27T01:45:06.041Z,13.30
2018-05-27T01:47:34.070Z,13.30
2018-05-27T01:50:09.283Z,13.30
2018-05-27T01:52:38.270Z,13.20
2018-05-27T01:55:07.078Z,13.10
2018-05-27T01:57:36.198Z,13.10
2018-05-27T02:00:06.142Z,13.10
2018-05-27T02:02:34.190Z,13.00
2018-05-27T02:05:02.238Z,13.00
2018-05-27T02:07:34.027Z,13.00
2018-05-27T02:10:10.703Z,12.90
2018-05-27T02:12:40.779Z,13.00
2018-05-27T02:15:09.862Z,13.00
2018-05-27T02:17:43.722Z,13.00
2018-05-27T02:20:20.102Z,13.10
2018-05-27T02:23:00.006Z,13.10
2018-05-27T02:25:35.763Z,13.10
2018-05-27T02:28:06.846Z,13.20
2018-05-27T02:30:41.391Z,13.40
2018-05-27T02:33:10.370Z,13.40
2018-05-27T02:35:40.159Z,13.30
2018-05-27T02:38:09.095Z,13.30
2018-05-27T02:40:39.067Z,13.30
2018-05-27T02:43:26.758Z,13.20
2018-05-27T02:48:54.202Z,13.10
2018-05-27T02:51:24.002Z,13.00
2018-05-27T02:54:00.502Z,13.00
2018-05-27T02:56:30.431Z,13.00
2018-05-27T02:59:03.486Z,13.00
2018-05-27T03:01:38.070Z,13.00
2018-05-27T03:10:22.858Z,12.90
2018-05-27T03:16:06.473Z,12.80
2018-05-27T03:21:45.418Z,12.90
2018-05-27T03:27:20.485Z,12.90
2018-05-27T03:29:50.454Z,12.90
2018-05-27T03:32:18.498Z,13.00
2018-05-27T03:34:53.710Z,13.00
2018-05-27T03:37:32.378Z,13.10
2018-05-27T03:40:13.087Z,13.10
2018-05-27T03:42:59.430Z,13.20
2018-05-27T03:45:39.503Z,13.20
2018-05-27T03:48:08.306Z,13.20
2018-05-27T03:50:51.866Z,13.20
2018-05-27T03:53:19.934Z,13.20
2018-05-27T03:55:53.918Z,13.40
2018-05-27T04:01:29.046Z,14.50
2018-05-27T04:07:05.740Z,14.90
2018-05-27T04:15:25.831Z,15.50
2018-05-27T04:18:15.430Z,15.60
2018-05-27T04:20:57.630Z,15.80
2018-05-27T04:23:46.982Z,15.90
2018-05-27T04:26:20.733Z,16.00
2018-05-27T04:37:47.870Z,16.30
2018-05-27T04:43:24.832Z,16.60
2018-05-27T04:45:53.842Z,16.70
2018-05-27T04:48:25.806Z,16.90
2018-05-27T04:51:03.145Z,17.00
2018-05-27T04:53:33.190Z,17.00
2018-05-27T04:56:03.942Z,17.30
2018-05-27T04:58:51.997Z,17.30
2018-05-27T05:01:39.340Z,17.30
2018-05-27T05:04:20.285Z,17.50
2018-05-27T05:09:54.753Z,18.00
2018-05-27T05:15:19.329Z,18.20
2018-05-27T05:17:48.342Z,18.40
2018-05-27T05:20:32.805Z,18.50
2018-05-27T05:23:02.789Z,18.70
2018-05-27T05:25:35.509Z,19.00
2018-05-27T05:28:04.542Z,19.00
2018-05-27T05:30:50.229Z,19.20
2018-05-27T05:33:20.042Z,19.80
2018-05-27T05:35:48.549Z,19.80
2018-05-27T05:38:33.410Z,20.20
2018-05-27T05:41:03.325Z,20.70
2018-05-27T05:43:34.510Z,21.10
2018-05-27T05:46:07.274Z,21.40
2018-05-27T05:48:36.137Z,21.60
2018-05-27T05:51:07.629Z,21.80
2018-05-27T05:53:41.451Z,21.90
2018-05-27T05:56:11.482Z,22.00
2018-05-27T05:58:59.086Z,22.10
2018-05-27T06:04:20.710Z,22.60
2018-05-27T06:06:50.662Z,22.80
2018-05-27T06:12:20.370Z,23.20
2018-05-27T06:14:52.883Z,23.20
2018-05-27T06:17:28.270Z,23.20
2018-05-27T06:20:10.042Z,23.20
2018-05-27T06:25:44.082Z,23.40
2018-05-27T06:28:33.710Z,23.20
2018-05-27T06:31:22.518Z,23.10
2018-05-27T06:33:58.883Z,23.00
2018-05-27T06:36:34.038Z,23.00
2018-05-27T06:39:03.505Z,23.20
2018-05-27T06:41:36.437Z,23.30
2018-05-27T06:47:05.455Z,23.60
2018-05-27T06:49:53.770Z,24.00
2018-05-27T06:52:28.541Z,24.30
2018-05-27T06:55:02.347Z,24.50
2018-05-27T06:57:32.353Z,24.80
2018-05-27T07:00:06.174Z,24.90
2018-05-27T07:02:35.194Z,25.00
2018-05-27T07:05:05.875Z,25.50
2018-05-27T07:07:33.949Z,25.50
2018-05-27T07:10:08.606Z,25.70
2018-05-27T07:12:40.321Z,26.00
2018-05-27T07:15:21.690Z,26.30
2018-05-27T07:17:54.922Z,26.60
2018-05-27T07:20:27.682Z,26.60
2018-05-27T07:22:56.361Z,26.60
2018-05-27T07:25:26.393Z,26.60
2018-05-27T07:27:54.421Z,27.10
2018-05-27T07:30:24.358Z,27.40
2018-05-27T07:32:56.433Z,28.10
2018-05-27T07:35:26.449Z,28.80
2018-05-27T07:38:00.437Z,28.80
2018-05-27T07:40:28.456Z,29.10
2018-05-27T07:43:00.696Z,30.20
2018-05-27T07:45:30.605Z,30.10
2018-05-27T07:48:00.636Z,30.20
2018-05-27T07:50:36.348Z,30.20
2018-05-27T07:53:11.296Z,29.70
2018-05-27T07:55:46.297Z,29.70
2018-05-27T07:58:21.214Z,30.00
2018-05-27T08:00:49.200Z,30.10
2018-05-27T08:03:19.152Z,29.80
2018-05-27T08:05:50.913Z,29.40
2018-05-27T08:11:12.049Z,29.30
2018-05-27T08:13:54.885Z,29.30
2018-05-27T08:16:23.665Z,29.50
2018-05-27T08:18:51.674Z,29.50
2018-05-27T08:21:21.561Z,29.20
2018-05-27T08:24:04.373Z,29.20
2018-05-27T08:26:54.501Z,29.10
2018-05-27T08:29:23.528Z,29.10
2018-05-27T08:31:52.433Z,29.40
2018-05-27T08:34:21.285Z,28.90
2018-05-27T08:36:55.693Z,28.70
2018-05-27T08:39:26.660Z,28.60
2018-05-27T08:42:02.609Z,28.90
2018-05-27T08:44:37.716Z,29.50
2018-05-27T08:47:09.912Z,30.40
2018-05-27T08:49:37.919Z,30.40
2018-05-27T08:52:06.697Z,29.50
2018-05-27T08:54:36.624Z,29.50
2018-05-27T08:57:06.284Z,28.80
2018-05-27T08:59:35.282Z,28.80
2018-05-27T09:02:05.241Z,29.00
2018-05-27T09:04:34.912Z,29.90
2018-05-27T09:07:02.908Z,29.90
2018-05-27T09:09:31.696Z,29.20
2018-05-27T09:12:00.600Z,29.20
2018-05-27T09:14:30.303Z,29.80
2018-05-27T09:16:59.083Z,30.80
2018-05-27T09:19:27.096Z,30.80
2018-05-27T09:21:57.044Z,31.40
2018-05-27T09:24:25.062Z,32.10
2018-05-27T09:26:53.064Z,32.80
2018-05-27T09:29:21.080Z,32.70
2018-05-27T09:31:51.793Z,34.30
2018-05-27T09:34:19.820Z,34.20
2018-05-27T09:36:47.816Z,34.30
2018-05-27T09:39:15.851Z,34.30
2018-05-27T09:41:48.216Z,34.90
2018-05-27T09:44:17.120Z,34.80
2018-05-27T09:46:48.692Z,32.90
2018-05-27T09:49:23.520Z,30.90
2018-05-27T09:52:03.444Z,29.70
2018-05-27T09:54:31.485Z,29.30
2018-05-27T09:57:01.373Z,28.70
2018-05-27T09:59:29.385Z,29.00
2018-05-27T10:01:58.163Z,32.90
2018-05-27T10:04:26.932Z,33.60
2018-05-27T10:06:55.824Z,33.60
2018-05-27T10:09:23.832Z,34.30
2018-05-27T10:11:52.760Z,33.80
2018-05-27T10:14:25.539Z,33.70
2018-05-27T10:16:53.544Z,34.10
2018-05-27T10:19:22.312Z,33.20
2018-05-27T10:21:50.336Z,33.10
2018-05-27T10:24:18.344Z,32.40
2018-05-27T10:26:48.344Z,32.10
2018-05-27T10:29:16.356Z,31.50
2018-05-27T10:31:45.124Z,32.70
2018-05-27T10:34:13.125Z,32.70
2018-05-27T10:36:47.064Z,35.90
2018-05-27T10:39:17.025Z,35.80
2018-05-27T10:41:45.972Z,37.50
2018-05-27T10:44:17.240Z,37.10
2018-05-27T10:46:49.148Z,36.90
2018-05-27T10:49:17.784Z,36.00
2018-05-27T10:51:45.796Z,34.40
2018-05-27T10:54:14.568Z,32.30
2018-05-27T10:56:42.585Z,32.30
2018-05-27T10:59:14.916Z,31.50
2018-05-27T11:01:45.476Z,32.00
2018-05-27T11:04:13.494Z,33.40
2018-05-27T11:06:41.508Z,33.30
2018-05-27T11:09:10.441Z,33.90
2018-05-27T11:11:39.284Z,33.60
2018-05-27T11:14:07.977Z,33.20
2018-05-27T11:16:38.676Z,36.40
2018-05-27T11:19:07.452Z,36.80
2018-05-27T11:21:37.104Z,38.10
2018-05-27T11:24:07.784Z,38.00
2018-05-27T11:26:35.795Z,38.00
2018-05-27T11:29:03.792Z,37.60
2018-05-27T11:31:35.804Z,37.80
2018-05-27T11:34:03.820Z,37.80
2018-05-27T11:36:36.464Z,37.90
2018-05-27T11:39:07.412Z,37.90
2018-05-27T11:41:35.415Z,37.50
2018-05-27T11:44:04.344Z,36.80
2018-05-27T11:46:34.256Z,36.00
2018-05-27T11:49:07.572Z,36.10
2018-05-27T11:51:36.552Z,37.60
2018-05-27T11:54:08.368Z,39.60
2018-05-27T11:56:37.128Z,38.50
2018-05-27T11:59:07.784Z,36.50
2018-05-27T12:01:35.784Z,36.50
2018-05-27T12:04:03.788Z,35.10
2018-05-27T12:06:31.792Z,33.50
2018-05-27T12:08:59.809Z,31.60
2018-05-27T12:11:29.716Z,29.70
2018-05-27T12:14:04.208Z,29.00
2018-05-27T12:16:32.216Z,28.60
2018-05-27T12:19:00.219Z,28.50
2018-05-27T12:21:29.889Z,28.50
2018-05-27T12:23:57.891Z,28.50
2018-05-27T12:26:26.847Z,30.50
2018-05-27T12:28:55.623Z,35.60
2018-05-27T12:31:25.547Z,35.50
2018-05-27T12:34:00.868Z,36.90
2018-05-27T12:36:29.870Z,38.30
2018-05-27T12:39:01.444Z,38.60
2018-05-27T12:41:36.943Z,39.80
2018-05-27T12:44:04.955Z,41.10
2018-05-27T12:46:32.952Z,42.80
2018-05-27T12:49:05.591Z,44.20
2018-05-27T12:51:35.503Z,44.10
2018-05-27T12:54:03.507Z,43.90
2018-05-27T12:56:36.256Z,43.60
2018-05-27T12:59:08.226Z,41.00
2018-05-27T13:01:36.244Z,39.60
2018-05-27T13:04:05.011Z,36.40
2018-05-27T13:06:35.731Z,36.40
2018-05-27T13:09:08.071Z,36.40
2018-05-27T13:11:36.088Z,36.60
2018-05-27T13:14:05.860Z,39.40
2018-05-27T13:16:37.903Z,39.10
2018-05-27T13:19:05.751Z,39.10
2018-05-27T13:21:35.509Z,37.70
2018-05-27T13:24:22.069Z,37.60
2018-05-27T13:26:51.828Z,39.90
2018-05-27T13:29:19.820Z,39.90
2018-05-27T13:31:50.544Z,40.50
2018-05-27T13:34:18.556Z,40.50
2018-05-27T13:36:51.336Z,40.20
2018-05-27T13:39:20.084Z,40.90
2018-05-27T13:41:48.088Z,40.80
2018-05-27T13:44:19.488Z,41.20
2018-05-27T13:46:47.652Z,39.10
2018-05-27T13:49:15.742Z,37.50
2018-05-27T13:51:43.747Z,36.60
2018-05-27T13:54:22.891Z,36.70
2018-05-27T13:56:50.963Z,36.30
2018-05-27T13:59:19.884Z,35.30
2018-05-27T14:02:07.787Z,34.60
2018-05-27T14:04:35.787Z,33.80
2018-05-27T14:07:04.567Z,32.70
2018-05-27T14:09:36.261Z,32.70
2018-05-27T14:12:04.396Z,33.60
2018-05-27T14:14:33.392Z,36.70
2018-05-27T14:17:01.404Z,38.80
2018-05-27T14:19:31.179Z,38.80
2018-05-27T14:22:02.276Z,38.80
2018-05-27T14:24:32.255Z,39.90
2018-05-27T14:27:01.229Z,39.30
2018-05-27T14:29:38.225Z,39.60
2018-05-27T14:32:32.152Z,39.50
2018-05-27T14:35:06.883Z,39.50
2018-05-27T14:37:38.352Z,40.10
2018-05-27T14:40:08.292Z,39.30
2018-05-27T14:42:40.951Z,38.20
2018-05-27T14:45:09.962Z,37.10
2018-05-27T14:47:37.955Z,36.60
2018-05-27T14:50:07.652Z,35.70
2018-05-27T14:52:52.891Z,35.60
2018-05-27T14:55:24.760Z,36.80
2018-05-27T14:57:59.500Z,38.90
2018-05-27T15:00:38.179Z,39.80
2018-05-27T15:03:09.675Z,38.20
2018-05-27T15:05:54.787Z,36.40
2018-05-27T15:08:23.731Z,34.30
2018-05-27T15:10:53.743Z,33.10
2018-05-27T15:13:23.615Z,32.60
2018-05-27T15:16:02.235Z,32.50
2018-05-27T15:18:30.291Z,32.50
2018-05-27T15:21:08.535Z,32.70
2018-05-27T15:23:42.635Z,32.50
2018-05-27T15:26:36.080Z,32.00
2018-05-27T15:29:07.690Z,31.40
2018-05-27T15:31:36.656Z,31.40
2018-05-27T15:34:08.543Z,31.30
2018-05-27T15:36:40.179Z,31.30
2018-05-27T15:39:09.185Z,31.20
2018-05-27T15:41:43.048Z,30.90
2018-05-27T15:44:18.911Z,30.50
2018-05-27T15:46:51.411Z,30.20
2018-05-27T15:49:21.427Z,30.00
2018-05-27T15:51:49.435Z,29.70
2018-05-27T15:54:20.135Z,29.80
2018-05-27T15:56:51.172Z,29.70
2018-05-27T15:59:28.987Z,30.50
2018-05-27T16:02:03.891Z,32.60
2018-05-27T16:04:33.808Z,33.90
2018-05-27T16:07:05.231Z,34.80
2018-05-27T16:09:45.663Z,35.20
2018-05-27T16:12:18.107Z,35.20
2018-05-27T16:14:47.010Z,35.20
2018-05-27T16:17:15.057Z,34.50
2018-05-27T16:19:43.963Z,33.80
2018-05-27T16:22:11.967Z,32.80
2018-05-27T16:24:47.343Z,31.50
2018-05-27T16:27:20.450Z,31.50
2018-05-27T16:29:52.323Z,31.80
2018-05-27T16:32:26.114Z,31.80
2018-05-27T16:34:54.107Z,31.80
2018-05-27T16:37:24.107Z,31.30
2018-05-27T16:40:04.822Z,30.80
2018-05-27T16:42:33.592Z,29.80
2018-05-27T16:45:09.799Z,29.50
2018-05-27T16:47:44.615Z,29.50
2018-05-27T16:50:14.515Z,29.30
2018-05-27T16:52:46.672Z,29.50
2018-05-27T16:55:18.391Z,29.40
2018-05-27T16:57:47.163Z,29.90
2018-05-27T17:00:15.174Z,29.80
2018-05-27T17:02:43.187Z,29.80
2018-05-27T17:05:11.182Z,29.60
2018-05-27T17:07:45.601Z,29.40
2018-05-27T17:10:17.646Z,29.20
2018-05-27T17:12:49.437Z,29.00
2018-05-27T17:15:17.442Z,28.70
2018-05-27T17:17:52.034Z,28.20
2018-05-27T17:20:26.823Z,28.20
2018-05-27T17:22:56.754Z,28.20
2018-05-27T17:25:24.755Z,28.00
2018-05-27T17:27:53.688Z,28.00
2018-05-27T17:30:22.492Z,27.80
2018-05-27T17:32:50.450Z,27.80
2018-05-27T17:35:19.358Z,27.70
2018-05-27T17:37:47.377Z,27.60
2018-05-27T17:40:23.087Z,27.40
2018-05-27T17:42:51.099Z,27.20
2018-05-27T17:45:23.530Z,27.00
2018-05-27T17:47:52.970Z,27.00
2018-05-27T17:50:27.747Z,27.00
2018-05-27T17:52:55.767Z,27.00
2018-05-27T17:55:24.363Z,26.90
2018-05-27T17:57:52.368Z,26.70
2018-05-27T18:00:20.375Z,26.50
2018-05-27T18:02:49.347Z,26.20
2018-05-27T18:05:19.262Z,26.00
2018-05-27T18:07:47.282Z,25.80
2018-05-27T18:10:17.966Z,25.50
2018-05-27T18:12:46.901Z,25.50
2018-05-27T18:15:19.308Z,25.20
2018-05-27T18:23:54.682Z,24.80
2018-05-27T18:26:23.584Z,24.70
2018-05-27T18:28:55.642Z,24.50
2018-05-27T18:31:23.662Z,24.40
2018-05-27T18:33:57.698Z,24.20
2018-05-27T18:36:27.606Z,24.10
2018-05-27T18:38:58.582Z,24.00
2018-05-27T18:41:26.582Z,23.80
2018-05-27T18:43:56.929Z,23.50
2018-05-27T18:46:25.838Z,23.50
2018-05-27T18:48:57.975Z,23.40
2018-05-27T18:51:28.434Z,23.20
2018-05-27T18:53:56.772Z,23.20
2018-05-27T18:56:32.930Z,22.90
2018-05-27T18:59:07.068Z,22.80
2018-05-27T19:01:35.166Z,22.80
2018-05-27T19:04:05.345Z,22.60
2018-05-27T19:06:34.278Z,22.60
2018-05-27T19:09:02.302Z,22.60
2018-05-27T19:11:32.054Z,22.60
2018-05-27T19:14:00.058Z,22.60
2018-05-27T19:16:30.998Z,22.60
2018-05-27T19:18:59.002Z,22.50
2018-05-27T19:21:27.002Z,22.40
2018-05-27T19:24:00.918Z,22.30
2018-05-27T19:26:32.150Z,22.20
2018-05-27T19:29:01.078Z,22.20
2018-05-27T19:31:29.094Z,22.20
2018-05-27T19:33:57.094Z,22.10
2018-05-27T19:36:25.113Z,22.00
2018-05-27T19:38:53.889Z,21.80
2018-05-27T19:41:25.766Z,21.70
2018-05-27T19:44:00.267Z,21.60
2018-05-27T19:46:29.226Z,21.60
2018-05-27T19:48:58.015Z,21.40
2018-05-27T19:51:26.998Z,21.40
2018-05-27T19:53:56.014Z,21.30
2018-05-27T19:56:24.986Z,21.30
2018-05-27T19:59:06.519Z,21.20
2018-05-27T20:01:37.186Z,21.10
2018-05-27T20:04:07.136Z,21.00
2018-05-27T20:06:35.146Z,21.00
2018-05-27T20:09:03.334Z,21.00
2018-05-27T20:11:32.250Z,21.00
2018-05-27T20:14:00.254Z,21.00
2018-05-27T20:16:34.642Z,21.00
2018-05-27T20:19:04.346Z,21.00
2018-05-27T20:21:32.362Z,21.00
2018-05-27T20:24:01.146Z,21.00
2018-05-27T20:26:33.314Z,21.00
2018-05-27T20:29:02.094Z,21.00
2018-05-27T20:31:30.110Z,21.00
2018-05-27T20:34:11.263Z,21.00
2018-05-27T20:36:43.594Z,20.80
2018-05-27T20:39:15.040Z,20.80
2018-05-27T20:41:43.050Z,20.80
2018-05-27T20:44:11.825Z,20.70
2018-05-27T20:46:41.609Z,20.60
2018-05-27T20:49:09.609Z,20.60
2018-05-27T20:51:39.381Z,20.30
2018-05-27T20:54:08.390Z,20.20
2018-05-27T20:56:38.409Z,19.90
2018-05-27T20:59:07.413Z,19.60
2018-05-27T21:01:38.513Z,19.50
2018-05-27T21:04:11.529Z,19.20
2018-05-27T21:06:39.525Z,19.10
2018-05-27T21:09:08.301Z,18.90
2018-05-27T21:11:39.021Z,18.80
2018-05-27T21:14:07.993Z,18.80
2018-05-27T21:16:36.017Z,18.70
2018-05-27T21:19:08.961Z,18.80
2018-05-27T21:21:37.069Z,18.90
2018-05-27T21:24:05.535Z,19.00
2018-05-27T21:26:33.569Z,19.10
2018-05-27T21:29:05.673Z,19.10
2018-05-27T21:31:40.649Z,19.00
2018-05-27T21:34:08.650Z,18.90
2018-05-27T21:36:37.617Z,18.90
2018-05-27T21:39:07.349Z,18.60
2018-05-27T21:41:38.269Z,18.60
2018-05-27T21:44:06.296Z,18.40
2018-05-27T21:46:35.084Z,18.30
2018-05-27T21:49:03.876Z,18.20
2018-05-27T21:51:31.881Z,18.20
2018-05-27T21:54:00.917Z,18.10
2018-05-27T21:56:28.916Z,18.10
2018-05-27T21:58:56.936Z,18.10
2018-05-27T22:01:28.391Z,18.20
2018-05-27T22:03:56.436Z,18.40
2018-05-27T22:06:24.414Z,18.50
2018-05-27T22:08:52.437Z,18.60
2018-05-27T22:11:22.397Z,18.70
2018-05-27T22:13:51.172Z,19.00
2018-05-27T22:16:20.196Z,18.90
2018-05-27T22:18:51.220Z,19.10
2018-05-27T22:21:19.245Z,19.10
2018-05-27T22:23:48.017Z,19.00
2018-05-27T22:26:16.788Z,19.00
2018-05-27T22:28:44.813Z,19.00
2018-05-27T22:31:19.117Z,19.00
2018-05-27T22:33:48.385Z,18.90
2018-05-27T22:36:16.473Z,18.90
2018-05-27T22:38:48.409Z,18.80
2018-05-27T22:41:16.416Z,18.80
2018-05-27T22:43:44.428Z,18.80
2018-05-27T22:46:12.457Z,18.80
2018-05-27T22:48:40.461Z,18.80
2018-05-27T22:51:12.029Z,18.70
2018-05-27T22:53:44.193Z,18.60
2018-05-27T22:56:12.226Z,18.50
2018-05-27T22:58:40.217Z,18.50
2018-05-27T23:01:08.269Z,18.40
2018-05-27T23:03:37.193Z,18.30
2018-05-27T23:06:05.200Z,18.50
2018-05-27T23:08:41.657Z,18.50
2018-05-27T23:11:10.445Z,18.30
2018-05-27T23:13:41.141Z,18.30
2018-05-27T23:16:09.173Z,18.30
2018-05-27T23:18:37.176Z,18.30
2018-05-27T23:21:05.981Z,18.50
2018-05-27T23:23:33.997Z,18.50
2018-05-27T23:26:02.009Z,18.50
2018-05-27T23:28:30.045Z,18.60
2018-05-27T23:30:58.045Z,18.60
2018-05-27T23:33:26.049Z,18.60
2018-05-27T23:35:54.860Z,18.50
2018-05-27T23:38:22.876Z,18.50
2018-05-27T23:40:52.917Z,18.40
2018-05-27T23:43:24.545Z,18.30
2018-05-27T23:45:53.437Z,18.30
2018-05-27T23:48:22.333Z,18.40
2018-05-27T23:50:50.376Z,18.40
2018-05-27T23:53:18.384Z,18.40
2018-05-27T23:55:52.548Z,18.40
2018-05-27T23:58:20.552Z,18.40
